Time;durP1;ratioP1;P1;durP2;ratioP2;P2;SDS_P1;SDS_P2;PMS_P1;PMS_P2;Temp;Humidity;BMP_temperature;BMP_pressure;BME280_temperature;BME280_humidity;BME280_pressure;Samples;Min_cycle;Max_cycle;Signal;HPM_P1;HPM_P2
2022/01/08 00:01:28;;;;;;;27.75;14.23;;;2.30;99.90;;;;;;4858944;29;20052;-88
2022/01/08 00:03:54;;;;;;;17.63;9.88;;;2.30;99.90;;;;;;4859262;29;20116;-88
2022/01/08 00:06:19;;;;;;;19.88;11.07;;;2.40;99.90;;;;;;4858859;29;20416;-89
2022/01/08 00:08:45;;;;;;;21.00;9.05;;;2.50;99.90;;;;;;4842070;29;20054;-88
2022/01/08 00:11:14;;;;;;;21.25;8.93;;;2.60;99.90;;;;;;4840621;29;20198;-88
2022/01/08 00:13:40;;;;;;;12.68;8.20;;;2.50;99.90;;;;;;4840625;29;20061;-88
2022/01/08 00:16:07;;;;;;;20.75;8.30;;;2.40;99.90;;;;;;4840745;29;20069;-88
2022/01/08 00:18:32;;;;;;;15.02;8.02;;;2.50;99.90;;;;;;4840519;29;20041;-88
2022/01/08 00:20:58;;;;;;;17.30;9.07;;;2.40;99.90;;;;;;4839799;29;20523;-88
2022/01/08 00:23:24;;;;;;;16.17;8.93;;;2.40;99.90;;;;;;4840471;29;20460;-88
2022/01/08 00:25:49;;;;;;;18.55;8.40;;;2.40;99.90;;;;;;4840419;29;20202;-88
2022/01/08 00:28:15;;;;;;;14.48;8.32;;;2.40;99.90;;;;;;4840415;29;20507;-88
2022/01/08 00:30:41;;;;;;;17.50;8.15;;;2.40;99.90;;;;;;4840276;29;20118;-87
2022/01/08 00:33:07;;;;;;;14.30;8.27;;;2.30;99.90;;;;;;4840636;29;20391;-88
2022/01/08 00:35:33;;;;;;;16.98;8.30;;;2.30;99.90;;;;;;4840083;29;20575;-87
2022/01/08 00:38:00;;;;;;;18.42;8.43;;;2.40;99.90;;;;;;4840022;29;20144;-88
2022/01/08 00:40:26;;;;;;;15.93;9.90;;;2.30;99.90;;;;;;4840206;29;20069;-88
2022/01/08 00:42:51;;;;;;;18.80;9.88;;;2.40;99.90;;;;;;4840294;29;20153;-87
2022/01/08 00:45:17;;;;;;;18.98;9.85;;;2.30;99.90;;;;;;4839750;29;20057;-87
2022/01/08 00:47:42;;;;;;;22.15;9.20;;;2.30;99.90;;;;;;4837243;29;20497;-87
2022/01/08 00:50:10;;;;;;;15.18;8.60;;;2.40;99.90;;;;;;4821751;29;20054;-88
2022/01/08 00:52:35;;;;;;;17.25;9.63;;;2.30;99.90;;;;;;4821764;29;20034;-88
2022/01/08 00:55:01;;;;;;;19.02;9.20;;;2.30;99.90;;;;;;4821765;29;20068;-88
2022/01/08 00:57:26;;;;;;;21.58;9.88;;;2.20;99.90;;;;;;4821741;29;20046;-87
2022/01/08 00:59:52;;;;;;;21.45;8.43;;;2.20;99.90;;;;;;4840264;29;20045;-88
2022/01/08 01:02:17;;;;;;;16.70;9.00;;;2.20;99.90;;;;;;4840632;29;20046;-88
2022/01/08 01:04:43;;;;;;;18.02;8.90;;;2.20;99.90;;;;;;4840383;29;20046;-88
2022/01/08 01:07:08;;;;;;;20.13;7.88;;;2.10;99.90;;;;;;4839646;29;20516;-87
2022/01/08 01:09:34;;;;;;;18.50;8.50;;;2.10;99.90;;;;;;4824524;29;20050;-90
2022/01/08 01:11:59;;;;;;;17.30;9.43;;;2.10;99.90;;;;;;4840646;29;20564;-89
2022/01/08 01:14:26;;;;;;;15.68;8.88;;;2.00;99.90;;;;;;4840813;29;20046;-89
2022/01/08 01:16:51;;;;;;;19.27;9.65;;;1.90;99.90;;;;;;4840239;29;20786;-89
2022/01/08 01:19:18;;;;;;;19.25;9.50;;;1.90;99.90;;;;;;4840420;29;20172;-89
2022/01/08 01:21:43;;;;;;;22.13;10.35;;;1.90;99.90;;;;;;4840166;29;20045;-90
2022/01/08 01:24:15;;;;;;;18.40;10.02;;;1.80;99.90;;;;;;4825185;29;20186;-90
2022/01/08 01:26:53;;;;;;;20.05;10.48;;;1.80;99.90;;;;;;4824949;29;20045;-90
2022/01/08 01:43:24;;;;;;;27.40;13.98;;;1.60;99.90;;;;;;4840284;29;20050;-89
2022/01/08 01:48:34;;;;;;;21.38;12.27;;;1.60;99.90;;;;;;4839821;29;20054;-89
2022/01/08 01:51:00;;;;;;;23.30;12.07;;;1.60;99.90;;;;;;4824496;29;20301;-89
2022/01/08 01:53:25;;;;;;;23.92;13.52;;;1.70;99.90;;;;;;4824162;29;20046;-90
2022/01/08 01:55:51;;;;;;;26.15;13.80;;;1.60;99.90;;;;;;4839429;29;20445;-89
2022/01/08 01:58:17;;;;;;;27.40;13.57;;;1.60;99.90;;;;;;4824758;29;20064;-90
2022/01/08 02:00:48;;;;;;;22.63;12.82;;;1.60;99.90;;;;;;4839973;29;20129;-89
2022/01/08 02:03:14;;;;;;;25.25;14.23;;;1.50;99.90;;;;;;4824393;29;20527;-89
2022/01/08 02:05:40;;;;;;;29.02;14.02;;;1.50;99.90;;;;;;4824682;29;20081;-90
2022/01/08 02:08:05;;;;;;;27.42;14.10;;;1.60;99.90;;;;;;4839201;29;20050;-89
2022/01/08 02:10:31;;;;;;;34.10;15.05;;;1.60;99.90;;;;;;4838702;29;20050;-90
2022/01/08 02:12:56;;;;;;;25.90;14.23;;;1.60;99.90;;;;;;4839459;29;20045;-89
2022/01/08 02:15:22;;;;;;;29.42;15.32;;;1.70;99.90;;;;;;4839634;29;20109;-89
2022/01/08 02:17:48;;;;;;;27.05;14.50;;;1.70;99.90;;;;;;4839035;29;20132;-89
2022/01/08 02:20:13;;;;;;;30.17;15.90;;;1.70;99.90;;;;;;4839531;29;20090;-90
2022/01/08 02:22:39;;;;;;;30.20;15.13;;;1.70;99.90;;;;;;4839701;29;20417;-90
2022/01/08 02:25:05;;;;;;;28.80;15.18;;;1.60;99.90;;;;;;4839105;29;20104;-90
2022/01/08 02:27:31;;;;;;;32.42;15.27;;;1.70;99.90;;;;;;4839361;29;20077;-90
2022/01/08 02:29:56;;;;;;;32.45;14.35;;;1.70;99.90;;;;;;4839112;29;20504;-90
2022/01/08 02:32:30;;;;;;;29.20;13.32;;;1.80;99.90;;;;;;4839183;29;20049;-90
2022/01/08 02:34:56;;;;;;;26.55;14.25;;;1.90;99.90;;;;;;4839024;29;20409;-88
2022/01/08 02:37:29;;;;;;;25.58;14.27;;;1.80;99.90;;;;;;4838940;29;20531;-90
2022/01/08 02:39:55;;;;;;;27.98;14.05;;;1.80;99.90;;;;;;4839010;29;20057;-89
2022/01/08 02:42:21;;;;;;;29.20;13.50;;;1.70;99.90;;;;;;4839233;29;20046;-89
2022/01/08 02:44:48;;;;;;;30.23;14.27;;;1.70;99.90;;;;;;4842739;29;20119;-89
2022/01/08 02:47:17;;;;;;;25.73;12.52;;;1.60;99.90;;;;;;4838813;29;20074;-90
2022/01/08 02:49:43;;;;;;;20.08;12.30;;;1.60;99.90;;;;;;4839078;29;20058;-89
2022/01/08 02:52:09;;;;;;;23.25;12.45;;;1.50;99.90;;;;;;4838501;29;20046;-89
2022/01/08 02:54:35;;;;;;;23.85;12.88;;;1.60;99.90;;;;;;4839142;29;20050;-89
2022/01/08 02:57:01;;;;;;;27.35;12.45;;;1.60;99.90;;;;;;4823374;29;20160;-89
2022/01/08 02:59:27;;;;;;;27.90;13.05;;;1.50;99.90;;;;;;4829795;29;20339;-89
2022/01/08 03:01:53;;;;;;;22.05;11.95;;;1.50;99.90;;;;;;4841258;29;20049;-88
2022/01/08 03:04:19;;;;;;;22.38;12.52;;;1.40;99.90;;;;;;4838786;29;20076;-88
2022/01/08 03:06:45;;;;;;;24.63;12.43;;;1.40;99.90;;;;;;4823191;29;20580;-89
2022/01/08 03:09:11;;;;;;;21.00;11.20;;;1.30;99.90;;;;;;4823303;29;20171;-88
2022/01/08 03:11:38;;;;;;;23.60;11.20;;;1.30;99.90;;;;;;4838476;29;20523;-88
2022/01/08 03:14:05;;;;;;;23.75;11.20;;;1.40;99.90;;;;;;4823046;29;20283;-89
2022/01/08 03:16:30;;;;;;;19.00;10.57;;;1.30;99.90;;;;;;4822956;29;20046;-88
2022/01/08 03:18:56;;;;;;;20.00;9.82;;;1.30;99.90;;;;;;4823199;29;20049;-88
2022/01/08 03:21:22;;;;;;;21.35;9.98;;;1.20;99.90;;;;;;4838181;29;20052;-88
2022/01/08 03:23:57;;;;;;;22.52;10.07;;;1.20;99.90;;;;;;4837944;29;20061;-88
2022/01/08 03:26:25;;;;;;;21.35;9.90;;;1.10;99.90;;;;;;4838373;29;20069;-89
2022/01/08 03:28:52;;;;;;;20.17;10.98;;;1.10;99.90;;;;;;4837905;29;20128;-87
2022/01/08 03:31:18;;;;;;;24.15;10.40;;;1.20;99.90;;;;;;4838154;29;20179;-89
2022/01/08 03:33:44;;;;;;;22.23;9.60;;;1.20;99.90;;;;;;4822817;29;20054;-88
2022/01/08 03:36:11;;;;;;;21.60;9.80;;;1.20;99.90;;;;;;4838193;29;20049;-88
2022/01/08 03:38:37;;;;;;;28.27;10.15;;;1.30;99.90;;;;;;4838192;29;20081;-89
2022/01/08 03:41:02;;;;;;;16.90;9.30;;;1.40;99.90;;;;;;4822910;29;20050;-89
2022/01/08 03:43:29;;;;;;;20.25;8.93;;;1.50;99.90;;;;;;4837836;29;20068;-88
2022/01/08 03:45:54;;;;;;;17.50;8.80;;;1.50;99.90;;;;;;4837651;29;20054;-88
2022/01/08 03:48:32;;;;;;;18.85;8.80;;;1.50;99.90;;;;;;4837896;29;20501;-88
2022/01/08 03:50:58;;;;;;;17.92;8.32;;;1.40;99.90;;;;;;4837252;29;20494;-88
2022/01/08 03:53:25;;;;;;;19.75;8.68;;;1.40;99.90;;;;;;4839108;29;20046;-88
2022/01/08 03:55:52;;;;;;;17.00;8.52;;;1.40;99.90;;;;;;4856017;29;20192;-88
2022/01/08 03:58:18;;;;;;;19.58;9.20;;;1.50;99.90;;;;;;4842015;29;20074;-87
2022/01/08 04:00:45;;;;;;;21.65;9.57;;;1.40;99.90;;;;;;4822567;29;20049;-88
2022/01/08 04:03:11;;;;;;;23.70;9.85;;;1.40;99.90;;;;;;4822624;29;20061;-87
2022/01/08 04:05:36;;;;;;;19.95;9.15;;;1.40;99.90;;;;;;4837400;29;20045;-88
2022/01/08 04:08:02;;;;;;;19.30;9.55;;;1.40;99.90;;;;;;4837280;29;20107;-88
2022/01/08 04:10:28;;;;;;;22.83;9.32;;;1.40;99.90;;;;;;4837784;29;20049;-88
2022/01/08 04:12:57;;;;;;;24.23;9.95;;;1.40;99.90;;;;;;4837113;29;20056;-88
2022/01/08 04:17:50;;;;;;;22.70;10.32;;;1.40;99.90;;;;;;4837385;29;20537;-87
2022/01/08 04:20:16;;;;;;;24.48;10.50;;;1.40;99.90;;;;;;4822321;29;20042;-87
2022/01/08 04:22:43;;;;;;;24.33;10.23;;;1.50;99.90;;;;;;4821911;29;20053;-87
2022/01/08 04:25:09;;;;;;;27.90;10.70;;;1.50;99.90;;;;;;4822147;29;20091;-88
2022/01/08 04:27:35;;;;;;;25.70;11.48;;;1.50;99.90;;;;;;4837078;29;20054;-87
2022/01/08 04:30:00;;;;;;;23.70;10.75;;;1.50;99.90;;;;;;4822092;29;20137;-88
2022/01/08 04:32:26;;;;;;;19.30;10.30;;;1.50;99.90;;;;;;4822447;29;20060;-88
2022/01/08 04:34:52;;;;;;;20.52;10.32;;;1.50;99.90;;;;;;4825715;29;20089;-87
2022/01/08 04:37:17;;;;;;;25.55;10.52;;;1.50;99.90;;;;;;4841099;29;20093;-87
2022/01/08 04:39:43;;;;;;;24.52;11.07;;;1.50;99.90;;;;;;4825462;29;20106;-88
2022/01/08 04:42:08;;;;;;;27.90;10.48;;;1.40;99.90;;;;;;4825327;29;20390;-87
2022/01/08 04:44:34;;;;;;;22.00;11.00;;;1.40;99.90;;;;;;4826261;29;20057;-88
2022/01/08 04:46:59;;;;;;;29.25;11.40;;;1.40;99.90;;;;;;4840728;29;20081;-87
2022/01/08 04:49:25;;;;;;;21.92;11.05;;;1.40;99.90;;;;;;4840752;29;20077;-86
2022/01/08 04:51:53;;;;;;;18.30;10.48;;;1.40;99.90;;;;;;4840688;29;20053;-88
2022/01/08 04:54:19;;;;;;;23.67;11.00;;;1.30;99.90;;;;;;4840631;29;20054;-86
2022/01/08 04:56:45;;;;;;;25.17;11.48;;;1.20;99.90;;;;;;4840296;29;20137;-88
2022/01/08 04:59:11;;;;;;;26.67;11.90;;;1.10;99.90;;;;;;4840774;29;20564;-88
2022/01/08 05:01:36;;;;;;;24.05;11.75;;;1.20;99.90;;;;;;4840757;29;20453;-88
2022/01/08 05:04:02;;;;;;;23.42;12.05;;;1.10;99.90;;;;;;4840806;29;20053;-88
2022/01/08 05:06:28;;;;;;;30.45;12.15;;;1.10;99.90;;;;;;4825666;29;20042;-87
2022/01/08 05:08:54;;;;;;;24.13;11.65;;;1.00;99.90;;;;;;4806966;29;20058;-87
2022/01/08 05:11:19;;;;;;;27.02;11.93;;;1.00;99.90;;;;;;4806672;29;20050;-88
2022/01/08 05:13:45;;;;;;;28.58;11.07;;;1.00;99.90;;;;;;4821899;29;20070;-87
2022/01/08 05:16:11;;;;;;;21.08;10.85;;;1.00;99.90;;;;;;4806812;29;20100;-87
2022/01/08 05:18:37;;;;;;;22.13;10.60;;;0.90;99.90;;;;;;4814531;29;20142;-87
2022/01/08 05:21:38;;;;;;;21.75;10.02;;;1.00;99.90;;;;;;4824504;29;20060;-87
2022/01/08 05:23:56;;;;;;;29.00;11.73;;;0.90;99.90;;;;;;4837196;29;20417;-87
2022/01/08 05:26:25;;;;;;;23.52;10.85;;;0.90;99.90;;;;;;4824650;29;20061;-87
2022/01/08 05:28:51;;;;;;;28.42;11.05;;;0.80;99.90;;;;;;4839763;29;20057;-87
2022/01/08 05:31:19;;;;;;;21.73;10.93;;;0.80;99.90;;;;;;4840188;29;20049;-87
2022/01/08 05:33:44;;;;;;;28.48;10.80;;;0.80;99.90;;;;;;4840014;29;20049;-87
2022/01/08 05:36:10;;;;;;;32.28;10.98;;;0.70;99.90;;;;;;4839987;29;20038;-88
2022/01/08 05:38:36;;;;;;;25.23;9.75;;;0.70;99.90;;;;;;4824273;29;20080;-88
2022/01/08 05:41:02;;;;;;;23.35;10.32;;;0.70;99.90;;;;;;4839160;29;20497;-88
2022/01/08 05:43:28;;;;;;;24.33;10.65;;;0.70;99.90;;;;;;4824213;29;20077;-87
2022/01/08 05:45:53;;;;;;;25.38;9.68;;;0.70;99.90;;;;;;4823059;29;20097;-87
2022/01/08 05:48:19;;;;;;;22.77;10.43;;;0.60;99.90;;;;;;4839700;29;20053;-87
2022/01/08 05:50:44;;;;;;;16.45;8.38;;;0.60;99.90;;;;;;4824220;29;20052;-87
2022/01/08 05:53:10;;;;;;;27.20;9.32;;;0.60;99.90;;;;;;4839454;29;20046;-87
2022/01/08 05:55:36;;;;;;;18.90;9.35;;;0.60;99.90;;;;;;4839441;29;20637;-87
2022/01/08 05:58:02;;;;;;;19.20;8.27;;;0.60;99.90;;;;;;4839157;29;20054;-87
2022/01/08 06:00:28;;;;;;;19.35;8.82;;;0.70;99.90;;;;;;4839728;29;20073;-87
2022/01/08 06:02:53;;;;;;;21.25;9.07;;;0.70;99.90;;;;;;4823850;29;20135;-87
2022/01/08 06:05:19;;;;;;;21.27;8.27;;;0.70;99.90;;;;;;4838842;29;20073;-88
2022/01/08 06:07:44;;;;;;;25.15;9.23;;;0.80;99.90;;;;;;4839395;29;20061;-87
2022/01/08 06:10:10;;;;;;;15.13;7.57;;;0.80;99.90;;;;;;4854205;29;20489;-87
2022/01/08 06:12:36;;;;;;;23.60;8.18;;;0.70;99.90;;;;;;4839470;29;20042;-87
2022/01/08 06:15:02;;;;;;;16.85;7.95;;;0.80;99.90;;;;;;4838719;29;20505;-87
2022/01/08 06:17:27;;;;;;;19.50;8.32;;;0.70;99.90;;;;;;4839214;29;20178;-87
2022/01/08 06:19:53;;;;;;;22.33;8.35;;;0.70;99.90;;;;;;4838986;29;20046;-87
2022/01/08 06:22:19;;;;;;;23.00;8.43;;;0.70;99.90;;;;;;4839335;29;20050;-87
2022/01/08 06:24:44;;;;;;;23.98;9.00;;;0.60;99.90;;;;;;4838499;29;20050;-87
2022/01/08 06:27:10;;;;;;;20.40;9.00;;;0.60;99.90;;;;;;4839259;29;20145;-87
2022/01/08 06:29:35;;;;;;;15.52;7.28;;;0.60;99.90;;;;;;4838518;29;20049;-86
2022/01/08 06:32:01;;;;;;;25.17;8.75;;;0.50;99.90;;;;;;4838083;29;20053;-87
2022/01/08 06:34:27;;;;;;;20.50;8.32;;;0.60;99.90;;;;;;4822838;29;20500;-87
2022/01/08 06:36:52;;;;;;;16.80;8.10;;;0.60;99.90;;;;;;4838441;29;20478;-86
2022/01/08 06:39:18;;;;;;;25.83;9.40;;;0.50;99.90;;;;;;4838223;29;20402;-87
2022/01/08 06:41:44;;;;;;;24.25;8.82;;;0.50;99.90;;;;;;4837810;29;20583;-86
2022/01/08 06:44:10;;;;;;;20.60;8.43;;;0.50;99.90;;;;;;4839007;29;20223;-86
2022/01/08 06:46:35;;;;;;;21.27;9.27;;;0.60;99.90;;;;;;4850667;29;20045;-87
2022/01/08 06:49:01;;;;;;;18.23;8.68;;;0.50;99.90;;;;;;4859363;29;20144;-87
2022/01/08 06:51:27;;;;;;;17.58;8.93;;;0.50;99.90;;;;;;4841394;29;20644;-87
2022/01/08 06:53:55;;;;;;;22.08;8.38;;;0.60;99.90;;;;;;4825089;29;20049;-87
2022/01/08 06:56:21;;;;;;;18.17;8.98;;;0.60;99.90;;;;;;4825504;29;20088;-86
2022/01/08 06:58:47;;;;;;;18.58;7.82;;;0.60;99.90;;;;;;4841059;29;20084;-87
2022/01/08 07:01:13;;;;;;;18.42;8.45;;;0.70;99.90;;;;;;4841279;29;20049;-87
2022/01/08 07:03:38;;;;;;;20.52;9.25;;;0.70;99.90;;;;;;4826334;29;20041;-87
2022/01/08 07:06:04;;;;;;;18.42;8.40;;;0.60;99.90;;;;;;4825478;29;20041;-87
2022/01/08 07:08:30;;;;;;;24.70;9.75;;;0.60;99.90;;;;;;4845364;29;20041;-87
2022/01/08 07:10:56;;;;;;;15.77;8.43;;;0.70;99.90;;;;;;4833921;29;20053;-87
2022/01/08 07:13:22;;;;;;;25.35;8.00;;;0.60;99.90;;;;;;4832042;29;20050;-87
2022/01/08 07:15:47;;;;;;;18.00;9.25;;;0.70;99.90;;;;;;4824861;29;20496;-87
2022/01/08 07:18:13;;;;;;;19.15;8.02;;;0.70;99.90;;;;;;4837488;29;20060;-86
2022/01/08 07:20:39;;;;;;;16.83;8.52;;;0.70;99.90;;;;;;4831192;29;20526;-88
2022/01/08 07:23:04;;;;;;;21.65;8.90;;;0.70;99.90;;;;;;4830142;29;20094;-87
2022/01/08 07:25:30;;;;;;;20.40;7.65;;;0.60;99.90;;;;;;4838906;29;20038;-86
2022/01/08 07:27:56;;;;;;;20.17;8.60;;;0.70;99.90;;;;;;4838735;29;20420;-86
2022/01/08 07:30:22;;;;;;;17.98;8.18;;;0.60;99.90;;;;;;4839870;29;20068;-87
2022/01/08 07:32:50;;;;;;;18.38;8.43;;;0.60;99.90;;;;;;4824371;29;20412;-87
2022/01/08 07:35:19;;;;;;;22.00;8.18;;;0.60;99.90;;;;;;4828785;29;20059;-86
2022/01/08 07:37:45;;;;;;;21.50;7.45;;;0.60;99.90;;;;;;4827179;29;20448;-86
2022/01/08 07:40:12;;;;;;;15.65;7.05;;;0.70;99.90;;;;;;4839379;29;20500;-87
2022/01/08 07:42:39;;;;;;;17.90;7.18;;;0.80;99.90;;;;;;4839461;29;20560;-87
2022/01/08 07:45:06;;;;;;;18.20;7.50;;;0.80;99.90;;;;;;4827237;29;20102;-86
2022/01/08 07:47:31;;;;;;;22.75;7.15;;;0.70;99.90;;;;;;4839426;29;20057;-86
2022/01/08 07:49:57;;;;;;;14.45;7.05;;;0.70;99.90;;;;;;4838617;29;20404;-86
2022/01/08 07:52:22;;;;;;;19.63;7.45;;;0.70;99.90;;;;;;4840309;29;20500;-87
2022/01/08 07:54:48;;;;;;;20.55;7.68;;;0.80;99.90;;;;;;4825123;29;20045;-86
2022/01/08 07:57:13;;;;;;;18.50;7.38;;;0.70;99.90;;;;;;4824913;29;20068;-87
2022/01/08 07:59:41;;;;;;;17.65;6.82;;;0.70;99.90;;;;;;4825278;29;20064;-86
2022/01/08 08:02:07;;;;;;;14.05;6.68;;;0.70;99.90;;;;;;4825080;29;20090;-86
2022/01/08 08:04:33;;;;;;;16.75;6.85;;;0.90;99.90;;;;;;4824493;29;20038;-86
2022/01/08 08:06:58;;;;;;;16.27;6.55;;;0.80;99.90;;;;;;4839488;29;20520;-86
2022/01/08 08:09:24;;;;;;;21.42;6.63;;;0.80;99.90;;;;;;4839835;29;20054;-86
2022/01/08 08:11:49;;;;;;;14.27;7.20;;;0.80;99.90;;;;;;4839641;29;20085;-86
2022/01/08 08:14:15;;;;;;;14.38;6.95;;;0.90;99.90;;;;;;4840251;29;20072;-86
2022/01/08 08:16:40;;;;;;;16.98;7.38;;;0.90;99.90;;;;;;4839797;29;20056;-86
2022/01/08 08:19:06;;;;;;;21.75;7.35;;;0.90;99.90;;;;;;4839825;29;20042;-86
2022/01/08 08:21:31;;;;;;;17.30;7.63;;;0.90;99.90;;;;;;4840025;29;20054;-86
2022/01/08 08:23:57;;;;;;;18.17;7.20;;;1.00;99.90;;;;;;4839549;29;20041;-86
2022/01/08 08:26:23;;;;;;;17.92;8.55;;;1.00;99.90;;;;;;4839962;29;20411;-86
2022/01/08 08:28:48;;;;;;;15.73;7.80;;;1.10;99.90;;;;;;4839967;29;20047;-87
2022/01/08 08:31:14;;;;;;;19.85;7.78;;;1.10;99.90;;;;;;4837870;29;20501;-86
2022/01/08 08:33:40;;;;;;;17.65;8.15;;;1.10;99.90;;;;;;4824277;29;20046;-86
2022/01/08 08:36:06;;;;;;;19.85;8.10;;;1.20;99.90;;;;;;4837122;29;20052;-87
2022/01/08 08:38:32;;;;;;;17.38;7.90;;;1.10;99.90;;;;;;4839979;29;20141;-87
2022/01/08 08:40:57;;;;;;;26.05;8.02;;;1.20;99.90;;;;;;4836011;29;20060;-87
2022/01/08 08:43:23;;;;;;;14.80;7.35;;;1.30;99.90;;;;;;4836994;29;20463;-87
2022/01/08 08:45:49;;;;;;;25.45;8.60;;;1.30;99.90;;;;;;4853141;29;20053;-85
2022/01/08 08:48:16;;;;;;;16.13;8.23;;;1.30;99.90;;;;;;4839254;29;20106;-86
2022/01/08 08:50:42;;;;;;;18.13;8.23;;;1.30;99.90;;;;;;4838673;29;20265;-87
2022/01/08 08:53:09;;;;;;;20.52;7.97;;;1.40;99.90;;;;;;4829505;29;20606;-86
2022/01/08 08:55:35;;;;;;;19.75;8.88;;;1.50;99.90;;;;;;4824407;29;20042;-87
2022/01/08 08:58:00;;;;;;;18.60;7.53;;;1.50;99.90;;;;;;4838834;29;20049;-86
2022/01/08 09:00:26;;;;;;;20.45;9.02;;;1.60;99.90;;;;;;4840160;29;20050;-87
2022/01/08 09:02:52;;;;;;;20.75;8.02;;;1.70;99.90;;;;;;4839016;29;20512;-87
2022/01/08 09:05:18;;;;;;;29.52;9.70;;;1.80;99.90;;;;;;4837860;29;20053;-86
2022/01/08 09:07:44;;;;;;;27.63;11.52;;;1.90;99.90;;;;;;4823338;29;20042;-87
2022/01/08 09:10:11;;;;;;;28.88;9.18;;;2.20;99.90;;;;;;4842790;29;20049;-87
2022/01/08 09:12:38;;;;;;;21.13;10.55;;;2.30;99.90;;;;;;4839732;29;20498;-87
2022/01/08 09:15:05;;;;;;;21.38;9.48;;;2.40;99.90;;;;;;4824889;29;20084;-86
2022/01/08 09:17:32;;;;;;;22.83;9.00;;;2.50;99.90;;;;;;4838989;29;20064;-86
2022/01/08 09:19:57;;;;;;;24.13;9.18;;;2.50;99.90;;;;;;4841318;29;20045;-87
2022/01/08 09:22:23;;;;;;;28.90;9.15;;;2.50;99.90;;;;;;4842833;29;20452;-88
2022/01/08 09:24:49;;;;;;;20.98;8.75;;;2.40;99.90;;;;;;4827553;29;20045;-87
2022/01/08 09:27:14;;;;;;;22.15;9.35;;;2.40;99.90;;;;;;4842472;29;20462;-87
2022/01/08 09:29:40;;;;;;;20.63;8.85;;;2.30;99.90;;;;;;4845093;29;20049;-87
2022/01/08 09:32:08;;;;;;;27.55;9.20;;;2.30;99.90;;;;;;4826687;29;20523;-87
2022/01/08 09:34:36;;;;;;;22.25;8.98;;;2.30;99.90;;;;;;4827210;29;20132;-87
2022/01/08 09:37:03;;;;;;;22.55;9.77;;;2.20;99.90;;;;;;4842201;29;20049;-88
2022/01/08 09:39:29;;;;;;;22.63;9.32;;;2.10;99.90;;;;;;4860464;29;20041;-87
2022/01/08 09:41:55;;;;;;;24.33;10.48;;;2.10;99.90;;;;;;4845768;29;20097;-87
2022/01/08 09:44:21;;;;;;;23.15;9.60;;;2.00;99.90;;;;;;4848070;29;20053;-87
2022/01/08 09:46:47;;;;;;;26.55;10.48;;;1.90;99.90;;;;;;4842485;29;20053;-88
2022/01/08 09:49:13;;;;;;;25.05;10.73;;;1.90;99.90;;;;;;4843180;29;20145;-88
2022/01/08 09:51:38;;;;;;;29.70;11.75;;;2.10;99.90;;;;;;4843037;29;20575;-88
2022/01/08 09:54:04;;;;;;;23.83;10.75;;;2.20;99.90;;;;;;4838636;29;20106;-88
2022/01/08 09:56:32;;;;;;;27.63;11.90;;;2.30;99.90;;;;;;4842572;29;20113;-87
2022/01/08 09:58:59;;;;;;;27.92;11.93;;;2.40;99.90;;;;;;4827638;29;20489;-88
2022/01/08 10:01:33;;;;;;;25.45;13.38;;;2.40;99.90;;;;;;4842123;29;20050;-88
2022/01/08 10:04:01;;;;;;;24.42;12.13;;;2.40;99.90;;;;;;4828702;29;20077;-88
2022/01/08 10:06:35;;;;;;;28.42;12.43;;;2.50;99.90;;;;;;4826821;29;20046;-88
2022/01/08 10:09:02;;;;;;;32.88;13.30;;;2.50;99.90;;;;;;4827338;29;20133;-88
2022/01/08 10:11:28;;;;;;;27.13;12.75;;;2.60;99.90;;;;;;4828011;29;20105;-88
2022/01/08 10:14:15;;;;;;;24.58;13.43;;;2.60;99.90;;;;;;4842063;29;20129;-88
2022/01/08 10:19:29;;;;;;;29.63;13.23;;;2.70;99.90;;;;;;4841645;29;20062;-88
2022/01/08 10:21:56;;;;;;;28.15;14.32;;;2.70;99.90;;;;;;4826953;29;20137;-88
2022/01/08 10:24:29;;;;;;;29.98;13.30;;;2.70;99.90;;;;;;4826604;29;20094;-87
2022/01/08 10:27:03;;;;;;;23.05;13.48;;;2.80;99.90;;;;;;4841925;29;20101;-88
2022/01/08 10:29:29;;;;;;;32.60;17.60;;;2.80;99.90;;;;;;4826963;29;20188;-88
2022/01/08 10:31:55;;;;;;;28.10;14.02;;;2.90;99.90;;;;;;4841395;29;20524;-89
2022/01/08 10:34:24;;;;;;;26.17;14.25;;;2.80;99.90;;;;;;4826364;29;20045;-87
2022/01/08 10:36:59;;;;;;;31.00;14.82;;;2.80;99.90;;;;;;4826559;29;20066;-88
2022/01/08 10:39:32;;;;;;;29.17;14.38;;;2.80;99.90;;;;;;4827189;29;20501;-89
2022/01/08 10:42:01;;;;;;;27.17;13.52;;;2.90;99.90;;;;;;4826994;29;20054;-88
2022/01/08 10:44:30;;;;;;;30.35;16.05;;;2.80;99.90;;;;;;4825840;29;20140;-89
2022/01/08 10:47:01;;;;;;;35.58;15.55;;;2.80;99.90;;;;;;4826696;29;20412;-88
2022/01/08 10:49:36;;;;;;;23.85;13.68;;;2.80;99.90;;;;;;4842059;29;20101;-88
2022/01/08 10:52:08;;;;;;;28.08;14.13;;;2.80;99.90;;;;;;4841905;29;20140;-89
2022/01/08 10:54:42;;;;;;;28.98;14.07;;;2.90;99.90;;;;;;4826909;29;20149;-89
2022/01/08 10:57:08;;;;;;;;;;;2.90;99.90;;;;;;4848481;29;20136;-89
2022/01/08 10:59:36;;;;;;;30.92;15.73;;;2.90;99.90;;;;;;4841214;29;20465;-88
2022/01/08 11:02:09;;;;;;;25.60;14.13;;;2.90;99.90;;;;;;4856953;29;20045;-88
2022/01/08 11:04:40;;;;;;;26.85;14.15;;;3.00;99.90;;;;;;4839244;29;20041;-88
2022/01/08 11:07:10;;;;;;;34.03;14.70;;;3.10;99.90;;;;;;4825469;29;20042;-87
2022/01/08 11:09:38;;;;;;;35.00;15.05;;;3.20;99.90;;;;;;4855816;29;20105;-88
2022/01/08 11:12:07;;;;;;;26.50;13.60;;;3.30;99.90;;;;;;4838935;29;20033;-87
2022/01/08 11:17:38;;;;;;;33.30;14.32;;;3.40;99.90;;;;;;4840213;29;20508;-88
2022/01/08 11:20:10;;;;;;;30.73;13.18;;;3.30;99.90;;;;;;4837693;29;20052;-86
2022/01/08 11:22:38;;;;;;;27.23;14.23;;;3.40;99.90;;;;;;4827295;29;20054;-88
2022/01/08 11:25:18;;;;;;;25.80;13.25;;;3.50;99.90;;;;;;4837478;29;20045;-87
2022/01/08 11:27:59;;;;;;;25.05;13.02;;;3.60;99.90;;;;;;4840984;29;20132;-88
2022/01/08 11:30:37;;;;;;;27.17;14.48;;;3.60;99.90;;;;;;4826345;29;20042;-87
2022/01/08 11:33:11;;;;;;;32.05;14.23;;;3.60;99.90;;;;;;4858172;29;20499;-89
2022/01/08 11:35:38;;;;;;;27.42;14.63;;;3.60;99.90;;;;;;4848292;29;20790;-88
2022/01/08 11:38:11;;;;;;;32.85;16.10;;;3.60;99.90;;;;;;4833646;29;20420;-89
2022/01/08 11:40:40;;;;;;;32.15;16.10;;;3.50;99.90;;;;;;4826269;29;20052;-88
2022/01/08 11:43:08;;;;;;;31.83;16.08;;;3.50;99.90;;;;;;4824875;29;20045;-89
2022/01/08 11:45:49;;;;;;;28.30;15.43;;;3.50;99.90;;;;;;4825801;29;20060;-88
2022/01/08 11:48:21;;;;;;;34.60;16.15;;;3.50;99.90;;;;;;4827098;29;20057;-88
2022/01/08 11:50:53;;;;;;;29.13;16.80;;;3.50;99.90;;;;;;4859081;29;20075;-89
2022/01/08 11:53:21;;;;;;;34.78;17.65;;;3.60;99.90;;;;;;4841004;29;20049;-88
2022/01/08 11:55:58;;;;;;;37.97;20.85;;;3.60;99.90;;;;;;4825341;29;20049;-91
2022/01/08 11:58:32;;;;;;;33.80;18.90;;;3.60;99.90;;;;;;4842174;29;20500;-90
2022/01/08 12:01:02;;;;;;;36.13;19.42;;;3.60;99.90;;;;;;4831156;29;20053;-89
2022/01/08 12:03:28;;;;;;;33.88;19.52;;;3.60;99.90;;;;;;4828634;29;20056;-89
2022/01/08 12:05:54;;;;;;;40.65;21.92;;;3.60;99.90;;;;;;4840820;29;20477;-88
2022/01/08 12:08:53;;;;;;;39.65;21.15;;;3.70;99.90;;;;;;4825880;29;20053;-89
2022/01/08 12:11:18;;;;;;;50.28;23.52;;;3.70;99.90;;;;;;4840781;29;20450;-90
2022/01/08 12:13:46;;;;;;;41.97;22.90;;;3.60;99.90;;;;;;4828384;29;20033;-89
2022/01/08 12:16:36;;;;;;;47.83;23.83;;;3.60;99.90;;;;;;4859194;29;20512;-88
2022/01/08 12:19:04;;;;;;;46.40;25.95;;;3.60;99.90;;;;;;4846943;29;20053;-88
2022/01/08 12:21:33;;;;;;;45.47;24.13;;;3.50;99.90;;;;;;4825849;29;20041;-88
2022/01/08 12:24:19;;;;;;;63.25;30.45;;;3.50;99.90;;;;;;4825082;29;20086;-89
2022/01/08 12:26:44;;;;;;;52.97;28.52;;;3.40;99.90;;;;;;4822123;29;20089;-88
2022/01/08 12:29:10;;;;;;;51.38;28.80;;;3.50;99.90;;;;;;4837711;29;20136;-90
2022/01/08 12:31:40;;;;;;;49.35;27.73;;;3.40;99.90;;;;;;4840584;29;20045;-88
2022/01/08 12:34:35;;;;;;;51.70;29.08;;;3.50;99.90;;;;;;4822436;29;20042;-88
2022/01/08 12:37:06;;;;;;;50.08;28.38;;;3.40;99.90;;;;;;4824808;29;20145;-88
2022/01/08 12:39:48;;;;;;;49.33;29.85;;;3.40;99.90;;;;;;4831677;29;20123;-89
2022/01/08 12:42:19;;;;;;;57.95;29.55;;;3.30;99.90;;;;;;4842210;29;20059;-88
2022/01/08 12:45:01;;;;;;;58.30;31.38;;;3.30;99.90;;;;;;4841318;29;20053;-87
2022/01/08 12:47:46;;;;;;;76.75;39.15;;;3.30;99.90;;;;;;4843653;29;20052;-88
2022/01/08 12:50:32;;;;;;;215.68;100.18;;;3.30;99.90;;;;;;4839130;29;20348;-88
2022/01/08 12:53:03;;;;;;;262.00;128.35;;;3.50;99.90;;;;;;4824998;29;20085;-87
2022/01/08 12:55:55;;;;;;;71.47;37.17;;;3.50;99.90;;;;;;4845241;29;20420;-88
2022/01/08 12:58:36;;;;;;;82.57;47.28;;;3.40;99.90;;;;;;4841819;29;20068;-89
2022/01/08 13:01:08;;;;;;;70.03;37.65;;;3.30;99.90;;;;;;4828526;29;20053;-88
2022/01/08 13:03:38;;;;;;;169.75;79.60;;;3.40;99.90;;;;;;4828469;29;20155;-87
2022/01/08 13:06:11;;;;;;;71.85;36.80;;;3.50;99.90;;;;;;4846958;29;20045;-87
2022/01/08 13:08:37;;;;;;;70.30;39.67;;;3.40;99.90;;;;;;4857289;29;20116;-88